createdAt,value
2022-07-29T00:25:34.122Z,12
2022-07-29T00:54:14.232Z,13
2022-07-29T01:22:49.027Z,13
2022-07-29T01:51:40.512Z,12
2022-07-29T02:20:32.463Z,11
2022-07-29T02:49:19.891Z,11
2022-07-29T03:18:06.156Z,11
2022-07-29T03:46:57.887Z,11
2022-07-29T04:15:43.225Z,13
2022-07-29T04:44:28.542Z,13
2022-07-29T04:49:52.156Z,15
2022-07-29T05:18:34.569Z,14
2022-07-29T05:47:27.372Z,14
2022-07-29T06:16:28.838Z,14
2022-07-29T06:44:46.557Z,13
2022-07-29T07:13:27.030Z,12
2022-07-29T07:42:06.984Z,14
2022-07-29T08:10:42.577Z,13
2022-07-29T08:39:17.800Z,13
2022-07-29T09:07:58.498Z,12
2022-07-29T09:36:41.189Z,12
2022-07-29T10:05:12.786Z,11
2022-07-29T10:33:57.703Z,11
2022-07-29T11:30:57.964Z,10
2022-07-29T11:59:34.590Z,11
2022-07-29T12:27:56.846Z,11
2022-07-29T12:56:45.748Z,10
2022-07-29T13:24:52.147Z,10
2022-07-29T13:53:31.770Z,9
2022-07-29T14:22:15.070Z,9
2022-07-29T14:50:45.060Z,10
2022-07-29T15:19:21.225Z,10
2022-07-29T15:47:53.334Z,10
2022-07-29T16:16:27.769Z,10
2022-07-29T16:45:06.011Z,9
2022-07-29T17:13:36.297Z,10
2022-07-29T17:42:17.027Z,9
2022-07-29T18:10:39.695Z,9
2022-07-29T18:39:21.473Z,9
2022-07-29T19:07:44.245Z,8
2022-07-29T19:36:28.044Z,7
2022-07-29T20:05:04.378Z,7
2022-07-29T20:33:35.096Z,7
2022-07-29T21:02:09.559Z,7
2022-07-29T21:30:37.953Z,7
2022-07-29T21:59:17.128Z,7
2022-07-29T22:27:51.030Z,7
2022-07-29T22:56:42.170Z,8
2022-07-29T23:25:21.365Z,7
2022-07-29T23:54:09.134Z,10
